sensor_id;sensor_type;location;lat;lon;timestamp;P1;durP1;ratioP1;P2;durP2;ratioP2
3865;SDS011;1948;53.250;10.412;2023-02-18T00:01:42;17.03;;;3.07;;
3865;SDS011;1948;53.250;10.412;2023-02-18T00:04:14;34.10;;;5.03;;
3865;SDS011;1948;53.250;10.412;2023-02-18T00:06:43;14.00;;;2.90;;
3865;SDS011;1948;53.250;10.412;2023-02-18T00:09:11;18.97;;;3.23;;
3865;SDS011;1948;53.250;10.412;2023-02-18T00:11:41;16.77;;;3.17;;
3865;SDS011;1948;53.250;10.412;2023-02-18T00:14:11;11.73;;;2.80;;
3865;SDS011;1948;53.250;10.412;2023-02-18T00:16:41;15.50;;;2.43;;
3865;SDS011;1948;53.250;10.412;2023-02-18T00:19:13;41.10;;;4.47;;
3865;SDS011;1948;53.250;10.412;2023-02-18T00:21:46;23.87;;;2.87;;
3865;SDS011;1948;53.250;10.412;2023-02-18T00:24:15;21.93;;;3.47;;
3865;SDS011;1948;53.250;10.412;2023-02-18T00:26:42;19.57;;;3.07;;
3865;SDS011;1948;53.250;10.412;2023-02-18T00:29:15;26.20;;;3.10;;
3865;SDS011;1948;53.250;10.412;2023-02-18T00:31:42;24.77;;;4.07;;
3865;SDS011;1948;53.250;10.412;2023-02-18T00:34:12;14.50;;;2.87;;
3865;SDS011;1948;53.250;10.412;2023-02-18T00:36:39;26.77;;;3.03;;
3865;SDS011;1948;53.250;10.412;2023-02-18T00:39:09;21.53;;;3.53;;
3865;SDS011;1948;53.250;10.412;2023-02-18T00:41:39;29.00;;;3.77;;
3865;SDS011;1948;53.250;10.412;2023-02-18T00:44:06;17.70;;;2.80;;
3865;SDS011;1948;53.250;10.412;2023-02-18T00:46:34;29.27;;;3.07;;
3865;SDS011;1948;53.250;10.412;2023-02-18T00:49:02;22.33;;;3.80;;
3865;SDS011;1948;53.250;10.412;2023-02-18T00:51:32;20.80;;;3.10;;
3865;SDS011;1948;53.250;10.412;2023-02-18T00:53:59;21.00;;;3.20;;
3865;SDS011;1948;53.250;10.412;2023-02-18T00:56:29;21.77;;;3.63;;
3865;SDS011;1948;53.250;10.412;2023-02-18T00:58:59;15.60;;;2.93;;
3865;SDS011;1948;53.250;10.412;2023-02-18T01:01:26;17.00;;;2.50;;
3865;SDS011;1948;53.250;10.412;2023-02-18T01:03:58;17.57;;;2.83;;
3865;SDS011;1948;53.250;10.412;2023-02-18T01:06:25;15.83;;;3.47;;
3865;SDS011;1948;53.250;10.412;2023-02-18T01:08:54;15.10;;;2.60;;
3865;SDS011;1948;53.250;10.412;2023-02-18T01:11:24;19.07;;;2.70;;
3865;SDS011;1948;53.250;10.412;2023-02-18T01:13:51;10.63;;;2.80;;
3865;SDS011;1948;53.250;10.412;2023-02-18T01:16:18;13.47;;;2.77;;
3865;SDS011;1948;53.250;10.412;2023-02-18T01:18:45;29.37;;;4.40;;
3865;SDS011;1948;53.250;10.412;2023-02-18T01:21:12;21.53;;;3.10;;
3865;SDS011;1948;53.250;10.412;2023-02-18T01:23:44;21.60;;;2.73;;
3865;SDS011;1948;53.250;10.412;2023-02-18T01:26:14;11.93;;;3.10;;
3865;SDS011;1948;53.250;10.412;2023-02-18T01:28:40;14.63;;;2.40;;
3865;SDS011;1948;53.250;10.412;2023-02-18T01:31:09;12.57;;;3.20;;
3865;SDS011;1948;53.250;10.412;2023-02-18T01:33:38;18.10;;;3.47;;
3865;SDS011;1948;53.250;10.412;2023-02-18T01:36:06;21.03;;;3.87;;
3865;SDS011;1948;53.250;10.412;2023-02-18T01:38:34;27.73;;;2.80;;
3865;SDS011;1948;53.250;10.412;2023-02-18T01:41:02;15.40;;;2.70;;
3865;SDS011;1948;53.250;10.412;2023-02-18T01:43:32;13.50;;;2.73;;
3865;SDS011;1948;53.250;10.412;2023-02-18T01:53:49;24.13;;;2.80;;
3865;SDS011;1948;53.250;10.412;2023-02-18T01:59:27;31.40;;;3.20;;
3865;SDS011;1948;53.250;10.412;2023-02-18T02:02:06;12.83;;;3.50;;
3865;SDS011;1948;53.250;10.412;2023-02-18T02:04:39;32.33;;;4.33;;
3865;SDS011;1948;53.250;10.412;2023-02-18T02:07:07;14.00;;;2.90;;
3865;SDS011;1948;53.250;10.412;2023-02-18T02:09:34;15.17;;;3.07;;
3865;SDS011;1948;53.250;10.412;2023-02-18T02:27:18;21.73;;;3.10;;
3865;SDS011;1948;53.250;10.412;2023-02-18T02:36:08;13.23;;;2.57;;
3865;SDS011;1948;53.250;10.412;2023-02-18T02:39:02;13.87;;;2.23;;
3865;SDS011;1948;53.250;10.412;2023-02-18T02:51:29;17.33;;;3.00;;
3865;SDS011;1948;53.250;10.412;2023-02-18T02:53:45;30.47;;;3.40;;
3865;SDS011;1948;53.250;10.412;2023-02-18T02:56:17;22.47;;;2.80;;
3865;SDS011;1948;53.250;10.412;2023-02-18T02:58:57;11.63;;;2.63;;
3865;SDS011;1948;53.250;10.412;2023-02-18T03:04:59;13.00;;;3.60;;
3865;SDS011;1948;53.250;10.412;2023-02-18T03:20:50;13.70;;;2.07;;
3865;SDS011;1948;53.250;10.412;2023-02-18T03:23:02;20.43;;;2.87;;
3865;SDS011;1948;53.250;10.412;2023-02-18T03:25:36;15.20;;;2.80;;
3865;SDS011;1948;53.250;10.412;2023-02-18T03:28:13;25.20;;;3.03;;
3865;SDS011;1948;53.250;10.412;2023-02-18T03:30:49;14.83;;;2.60;;
3865;SDS011;1948;53.250;10.412;2023-02-18T03:33:29;24.63;;;2.60;;
3865;SDS011;1948;53.250;10.412;2023-02-18T03:36:01;20.53;;;3.37;;
3865;SDS011;1948;53.250;10.412;2023-02-18T03:41:12;12.70;;;2.30;;
3865;SDS011;1948;53.250;10.412;2023-02-18T03:43:39;16.00;;;3.00;;
3865;SDS011;1948;53.250;10.412;2023-02-18T03:46:17;9.77;;;1.90;;
3865;SDS011;1948;53.250;10.412;2023-02-18T03:48:47;16.43;;;2.53;;
3865;SDS011;1948;53.250;10.412;2023-02-18T03:51:16;20.17;;;2.90;;
3865;SDS011;1948;53.250;10.412;2023-02-18T03:53:44;10.10;;;2.70;;
3865;SDS011;1948;53.250;10.412;2023-02-18T03:56:12;11.23;;;2.00;;
3865;SDS011;1948;53.250;10.412;2023-02-18T03:58:39;11.47;;;2.50;;
3865;SDS011;1948;53.250;10.412;2023-02-18T04:01:06;13.97;;;2.63;;
3865;SDS011;1948;53.250;10.412;2023-02-18T04:03:35;10.20;;;2.03;;
3865;SDS011;1948;53.250;10.412;2023-02-18T04:06:03;9.60;;;2.27;;
3865;SDS011;1948;53.250;10.412;2023-02-18T04:08:30;12.77;;;3.10;;
3865;SDS011;1948;53.250;10.412;2023-02-18T04:10:58;11.40;;;2.70;;
3865;SDS011;1948;53.250;10.412;2023-02-18T04:13:25;13.73;;;2.90;;
3865;SDS011;1948;53.250;10.412;2023-02-18T04:15:55;7.50;;;1.90;;
3865;SDS011;1948;53.250;10.412;2023-02-18T04:18:23;12.43;;;2.10;;
3865;SDS011;1948;53.250;10.412;2023-02-18T04:20:54;18.70;;;2.90;;
3865;SDS011;1948;53.250;10.412;2023-02-18T04:23:24;9.43;;;2.00;;
3865;SDS011;1948;53.250;10.412;2023-02-18T04:25:51;8.17;;;2.67;;
3865;SDS011;1948;53.250;10.412;2023-02-18T04:28:21;8.97;;;1.90;;
3865;SDS011;1948;53.250;10.412;2023-02-18T04:30:50;10.37;;;1.87;;
3865;SDS011;1948;53.250;10.412;2023-02-18T04:33:17;16.30;;;2.87;;
3865;SDS011;1948;53.250;10.412;2023-02-18T04:35:46;11.70;;;1.80;;
3865;SDS011;1948;53.250;10.412;2023-02-18T04:38:16;10.30;;;2.57;;
3865;SDS011;1948;53.250;10.412;2023-02-18T04:40:43;11.97;;;2.10;;
3865;SDS011;1948;53.250;10.412;2023-02-18T04:43:10;17.93;;;2.60;;
3865;SDS011;1948;53.250;10.412;2023-02-18T04:45:40;14.17;;;2.50;;
3865;SDS011;1948;53.250;10.412;2023-02-18T04:48:07;7.40;;;2.00;;
3865;SDS011;1948;53.250;10.412;2023-02-18T04:50:33;10.40;;;2.20;;
3865;SDS011;1948;53.250;10.412;2023-02-18T04:53:00;9.70;;;2.20;;
3865;SDS011;1948;53.250;10.412;2023-02-18T04:55:28;15.63;;;2.20;;
3865;SDS011;1948;53.250;10.412;2023-02-18T04:57:55;7.80;;;1.70;;
3865;SDS011;1948;53.250;10.412;2023-02-18T05:00:24;18.87;;;2.70;;
3865;SDS011;1948;53.250;10.412;2023-02-18T05:02:53;13.50;;;2.00;;
3865;SDS011;1948;53.250;10.412;2023-02-18T05:05:23;7.73;;;2.10;;
3865;SDS011;1948;53.250;10.412;2023-02-18T05:07:52;10.10;;;2.03;;
3865;SDS011;1948;53.250;10.412;2023-02-18T05:10:22;12.80;;;2.27;;
3865;SDS011;1948;53.250;10.412;2023-02-18T05:12:48;16.27;;;2.23;;
3865;SDS011;1948;53.250;10.412;2023-02-18T05:15:18;14.17;;;2.57;;
3865;SDS011;1948;53.250;10.412;2023-02-18T05:17:45;14.83;;;1.97;;
3865;SDS011;1948;53.250;10.412;2023-02-18T05:20:12;14.63;;;1.97;;
3865;SDS011;1948;53.250;10.412;2023-02-18T05:22:42;11.30;;;1.90;;
3865;SDS011;1948;53.250;10.412;2023-02-18T05:25:13;15.20;;;2.23;;
3865;SDS011;1948;53.250;10.412;2023-02-18T05:27:40;15.30;;;2.00;;
3865;SDS011;1948;53.250;10.412;2023-02-18T05:30:07;8.60;;;1.70;;
3865;SDS011;1948;53.250;10.412;2023-02-18T05:32:38;14.87;;;2.13;;
3865;SDS011;1948;53.250;10.412;2023-02-18T05:35:07;12.97;;;1.97;;
3865;SDS011;1948;53.250;10.412;2023-02-18T05:37:35;11.10;;;1.80;;
3865;SDS011;1948;53.250;10.412;2023-02-18T05:40:12;9.87;;;1.80;;
3865;SDS011;1948;53.250;10.412;2023-02-18T05:42:44;3.60;;;1.43;;
3865;SDS011;1948;53.250;10.412;2023-02-18T05:45:13;4.90;;;1.27;;
3865;SDS011;1948;53.250;10.412;2023-02-18T05:47:40;3.53;;;1.23;;
3865;SDS011;1948;53.250;10.412;2023-02-18T05:50:09;2.83;;;1.23;;
3865;SDS011;1948;53.250;10.412;2023-02-18T05:52:36;5.50;;;2.10;;
3865;SDS011;1948;53.250;10.412;2023-02-18T05:55:03;6.97;;;2.03;;
3865;SDS011;1948;53.250;10.412;2023-02-18T05:57:32;12.03;;;2.10;;
3865;SDS011;1948;53.250;10.412;2023-02-18T05:59:59;5.80;;;1.27;;
3865;SDS011;1948;53.250;10.412;2023-02-18T06:02:26;9.07;;;1.90;;
3865;SDS011;1948;53.250;10.412;2023-02-18T06:04:57;5.83;;;2.00;;
3865;SDS011;1948;53.250;10.412;2023-02-18T06:07:24;8.40;;;1.87;;
3865;SDS011;1948;53.250;10.412;2023-02-18T06:09:51;9.23;;;2.30;;
3865;SDS011;1948;53.250;10.412;2023-02-18T06:12:19;8.40;;;2.30;;
3865;SDS011;1948;53.250;10.412;2023-02-18T06:14:45;9.73;;;2.20;;
3865;SDS011;1948;53.250;10.412;2023-02-18T06:17:13;10.17;;;2.20;;
3865;SDS011;1948;53.250;10.412;2023-02-18T06:19:41;9.93;;;2.77;;
3865;SDS011;1948;53.250;10.412;2023-02-18T06:22:10;14.17;;;2.40;;
3865;SDS011;1948;53.250;10.412;2023-02-18T06:24:42;9.40;;;2.20;;
3865;SDS011;1948;53.250;10.412;2023-02-18T06:27:09;17.00;;;2.30;;
3865;SDS011;1948;53.250;10.412;2023-02-18T06:29:38;19.43;;;2.10;;
3865;SDS011;1948;53.250;10.412;2023-02-18T06:32:05;10.43;;;1.97;;
3865;SDS011;1948;53.250;10.412;2023-02-18T06:34:32;5.10;;;2.50;;
3865;SDS011;1948;53.250;10.412;2023-02-18T06:36:59;15.10;;;2.17;;
3865;SDS011;1948;53.250;10.412;2023-02-18T06:39:26;14.07;;;2.47;;
3865;SDS011;1948;53.250;10.412;2023-02-18T06:41:56;19.23;;;2.97;;
3865;SDS011;1948;53.250;10.412;2023-02-18T06:44:23;8.50;;;2.50;;
3865;SDS011;1948;53.250;10.412;2023-02-18T06:46:50;8.97;;;1.90;;
3865;SDS011;1948;53.250;10.412;2023-02-18T06:49:20;16.03;;;3.40;;
3865;SDS011;1948;53.250;10.412;2023-02-18T06:51:50;15.83;;;3.30;;
3865;SDS011;1948;53.250;10.412;2023-02-18T06:54:17;6.07;;;2.07;;
3865;SDS011;1948;53.250;10.412;2023-02-18T06:56:43;4.10;;;2.40;;
3865;SDS011;1948;53.250;10.412;2023-02-18T06:59:10;16.93;;;2.33;;
3865;SDS011;1948;53.250;10.412;2023-02-18T07:01:40;3.60;;;2.03;;
3865;SDS011;1948;53.250;10.412;2023-02-18T07:04:06;12.60;;;2.40;;
3865;SDS011;1948;53.250;10.412;2023-02-18T07:06:36;10.00;;;1.93;;
3865;SDS011;1948;53.250;10.412;2023-02-18T07:09:04;5.83;;;1.67;;
3865;SDS011;1948;53.250;10.412;2023-02-18T07:11:31;5.20;;;2.00;;
3865;SDS011;1948;53.250;10.412;2023-02-18T07:13:58;10.60;;;2.10;;
3865;SDS011;1948;53.250;10.412;2023-02-18T07:16:25;5.50;;;1.87;;
3865;SDS011;1948;53.250;10.412;2023-02-18T07:18:54;11.37;;;2.10;;
3865;SDS011;1948;53.250;10.412;2023-02-18T07:21:24;7.87;;;1.90;;
3865;SDS011;1948;53.250;10.412;2023-02-18T07:23:51;6.97;;;2.00;;
3865;SDS011;1948;53.250;10.412;2023-02-18T07:26:18;5.53;;;1.73;;
3865;SDS011;1948;53.250;10.412;2023-02-18T07:28:49;12.93;;;2.07;;
3865;SDS011;1948;53.250;10.412;2023-02-18T07:31:16;17.93;;;2.00;;
3865;SDS011;1948;53.250;10.412;2023-02-18T07:33:46;12.40;;;2.23;;
3865;SDS011;1948;53.250;10.412;2023-02-18T07:36:15;7.67;;;2.17;;
3865;SDS011;1948;53.250;10.412;2023-02-18T07:38:44;21.70;;;2.70;;
3865;SDS011;1948;53.250;10.412;2023-02-18T07:41:16;7.47;;;2.23;;
3865;SDS011;1948;53.250;10.412;2023-02-18T07:43:45;13.13;;;2.50;;
3865;SDS011;1948;53.250;10.412;2023-02-18T07:46:17;11.83;;;2.40;;
3865;SDS011;1948;53.250;10.412;2023-02-18T07:48:45;8.30;;;2.67;;
3865;SDS011;1948;53.250;10.412;2023-02-18T07:51:13;11.50;;;2.10;;
3865;SDS011;1948;53.250;10.412;2023-02-18T07:53:41;10.33;;;2.97;;
3865;SDS011;1948;53.250;10.412;2023-02-18T07:56:09;6.73;;;1.90;;
3865;SDS011;1948;53.250;10.412;2023-02-18T07:58:37;9.17;;;2.70;;
3865;SDS011;1948;53.250;10.412;2023-02-18T08:01:11;14.13;;;2.37;;
3865;SDS011;1948;53.250;10.412;2023-02-18T08:03:41;2.30;;;1.67;;
3865;SDS011;1948;53.250;10.412;2023-02-18T08:06:13;6.43;;;1.40;;
3865;SDS011;1948;53.250;10.412;2023-02-18T08:09:08;6.80;;;2.00;;
3865;SDS011;1948;53.250;10.412;2023-02-18T08:11:35;11.47;;;2.63;;
3865;SDS011;1948;53.250;10.412;2023-02-18T08:14:03;10.47;;;2.90;;
3865;SDS011;1948;53.250;10.412;2023-02-18T08:16:32;11.50;;;1.77;;
3865;SDS011;1948;53.250;10.412;2023-02-18T08:19:06;3.73;;;1.87;;
3865;SDS011;1948;53.250;10.412;2023-02-18T08:21:46;12.43;;;1.97;;
3865;SDS011;1948;53.250;10.412;2023-02-18T08:24:15;3.27;;;2.20;;
3865;SDS011;1948;53.250;10.412;2023-02-18T08:26:42;10.23;;;2.40;;
3865;SDS011;1948;53.250;10.412;2023-02-18T08:29:25;9.37;;;2.00;;
3865;SDS011;1948;53.250;10.412;2023-02-18T08:31:57;9.17;;;2.10;;
3865;SDS011;1948;53.250;10.412;2023-02-18T08:34:25;6.17;;;2.00;;
3865;SDS011;1948;53.250;10.412;2023-02-18T08:36:54;7.03;;;2.17;;
3865;SDS011;1948;53.250;10.412;2023-02-18T08:39:21;5.90;;;2.77;;
3865;SDS011;1948;53.250;10.412;2023-02-18T08:41:51;12.07;;;2.20;;
3865;SDS011;1948;53.250;10.412;2023-02-18T08:44:20;7.17;;;2.40;;
3865;SDS011;1948;53.250;10.412;2023-02-18T08:46:47;10.77;;;2.80;;
3865;SDS011;1948;53.250;10.412;2023-02-18T08:49:15;12.70;;;2.90;;
3865;SDS011;1948;53.250;10.412;2023-02-18T08:51:46;8.97;;;2.43;;
3865;SDS011;1948;53.250;10.412;2023-02-18T08:54:29;8.93;;;2.50;;
3865;SDS011;1948;53.250;10.412;2023-02-18T08:56:59;4.70;;;2.37;;
3865;SDS011;1948;53.250;10.412;2023-02-18T08:59:33;11.10;;;2.53;;
3865;SDS011;1948;53.250;10.412;2023-02-18T09:02:03;9.80;;;2.47;;
3865;SDS011;1948;53.250;10.412;2023-02-18T09:04:31;9.83;;;3.17;;
3865;SDS011;1948;53.250;10.412;2023-02-18T09:06:58;6.60;;;2.50;;
3865;SDS011;1948;53.250;10.412;2023-02-18T09:09:25;23.83;;;3.10;;
3865;SDS011;1948;53.250;10.412;2023-02-18T09:11:54;9.50;;;3.13;;
3865;SDS011;1948;53.250;10.412;2023-02-18T09:14:21;16.20;;;2.80;;
3865;SDS011;1948;53.250;10.412;2023-02-18T09:16:51;18.17;;;3.90;;
3865;SDS011;1948;53.250;10.412;2023-02-18T09:19:22;15.40;;;2.97;;
3865;SDS011;1948;53.250;10.412;2023-02-18T09:21:50;8.93;;;2.73;;
3865;SDS011;1948;53.250;10.412;2023-02-18T09:24:19;19.33;;;3.20;;
3865;SDS011;1948;53.250;10.412;2023-02-18T09:26:50;14.40;;;3.40;;
3865;SDS011;1948;53.250;10.412;2023-02-18T09:29:17;7.90;;;2.70;;
3865;SDS011;1948;53.250;10.412;2023-02-18T09:32:13;9.77;;;2.83;;
3865;SDS011;1948;53.250;10.412;2023-02-18T09:35:00;10.90;;;3.30;;
3865;SDS011;1948;53.250;10.412;2023-02-18T09:37:29;4.00;;;2.23;;
3865;SDS011;1948;53.250;10.412;2023-02-18T09:39:56;13.90;;;3.23;;
3865;SDS011;1948;53.250;10.412;2023-02-18T09:42:29;8.90;;;3.47;;
3865;SDS011;1948;53.250;10.412;2023-02-18T09:45:01;8.93;;;3.17;;
3865;SDS011;1948;53.250;10.412;2023-02-18T09:47:37;4.00;;;2.80;;
3865;SDS011;1948;53.250;10.412;2023-02-18T09:52:43;11.03;;;3.70;;
3865;SDS011;1948;53.250;10.412;2023-02-18T09:55:17;3.17;;;2.87;;
3865;SDS011;1948;53.250;10.412;2023-02-18T09:57:57;7.87;;;3.30;;
3865;SDS011;1948;53.250;10.412;2023-02-18T10:00:34;12.70;;;3.30;;
3865;SDS011;1948;53.250;10.412;2023-02-18T10:03:14;3.87;;;2.97;;
3865;SDS011;1948;53.250;10.412;2023-02-18T10:08:39;5.30;;;2.73;;
3865;SDS011;1948;53.250;10.412;2023-02-18T10:11:11;5.10;;;3.40;;
3865;SDS011;1948;53.250;10.412;2023-02-18T10:13:54;3.10;;;3.00;;
3865;SDS011;1948;53.250;10.412;2023-02-18T10:16:23;5.80;;;3.43;;
3865;SDS011;1948;53.250;10.412;2023-02-18T10:18:52;4.83;;;3.50;;
3865;SDS011;1948;53.250;10.412;2023-02-18T10:21:28;8.30;;;3.80;;
3865;SDS011;1948;53.250;10.412;2023-02-18T10:26:51;4.50;;;3.57;;
3865;SDS011;1948;53.250;10.412;2023-02-18T10:29:23;4.27;;;3.97;;
3865;SDS011;1948;53.250;10.412;2023-02-18T10:31:54;3.57;;;3.27;;
3865;SDS011;1948;53.250;10.412;2023-02-18T10:45:56;4.57;;;4.27;;
3865;SDS011;1948;53.250;10.412;2023-02-18T10:51:27;4.83;;;3.70;;
3865;SDS011;1948;53.250;10.412;2023-02-18T10:54:00;3.07;;;2.97;;
3865;SDS011;1948;53.250;10.412;2023-02-18T10:59:20;2.47;;;2.33;;
3865;SDS011;1948;53.250;10.412;2023-02-18T11:02:01;2.30;;;2.30;;
3865;SDS011;1948;53.250;10.412;2023-02-18T11:04:37;1.97;;;1.97;;
3865;SDS011;1948;53.250;10.412;2023-02-18T11:07:13;1.67;;;1.67;;
3865;SDS011;1948;53.250;10.412;2023-02-18T11:09:49;1.57;;;1.57;;
3865;SDS011;1948;53.250;10.412;2023-02-18T11:12:29;1.67;;;1.67;;
3865;SDS011;1948;53.250;10.412;2023-02-18T11:15:24;1.20;;;1.20;;
3865;SDS011;1948;53.250;10.412;2023-02-18T11:17:54;4.83;;;1.43;;
3865;SDS011;1948;53.250;10.412;2023-02-18T11:20:32;1.53;;;1.53;;
3865;SDS011;1948;53.250;10.412;2023-02-18T11:28:36;1.00;;;1.00;;
3865;SDS011;1948;53.250;10.412;2023-02-18T11:31:14;1.67;;;1.67;;
3865;SDS011;1948;53.250;10.412;2023-02-18T11:33:50;1.17;;;1.17;;
3865;SDS011;1948;53.250;10.412;2023-02-18T11:36:34;1.20;;;1.20;;
3865;SDS011;1948;53.250;10.412;2023-02-18T11:39:05;1.10;;;1.10;;
3865;SDS011;1948;53.250;10.412;2023-02-18T11:44:31;1.30;;;1.30;;
3865;SDS011;1948;53.250;10.412;2023-02-18T11:49:43;1.13;;;1.13;;
3865;SDS011;1948;53.250;10.412;2023-02-18T11:52:32;1.40;;;1.40;;
3865;SDS011;1948;53.250;10.412;2023-02-18T12:00:42;1.77;;;1.77;;
3865;SDS011;1948;53.250;10.412;2023-02-18T12:06:13;1.60;;;1.60;;
3865;SDS011;1948;53.250;10.412;2023-02-18T12:08:53;1.87;;;1.87;;
3865;SDS011;1948;53.250;10.412;2023-02-18T12:11:32;1.67;;;1.67;;
3865;SDS011;1948;53.250;10.412;2023-02-18T12:14:20;1.67;;;1.67;;
3865;SDS011;1948;53.250;10.412;2023-02-18T12:20:02;2.27;;;2.27;;
3865;SDS011;1948;53.250;10.412;2023-02-18T12:31:40;2.40;;;2.30;;
3865;SDS011;1948;53.250;10.412;2023-02-18T12:43:05;2.27;;;2.07;;
3865;SDS011;1948;53.250;10.412;2023-02-18T12:49:05;1.97;;;1.97;;
3865;SDS011;1948;53.250;10.412;2023-02-18T13:01:11;5.27;;;2.00;;
3865;SDS011;1948;53.250;10.412;2023-02-18T13:12:44;1.10;;;1.10;;
3865;SDS011;1948;53.250;10.412;2023-02-18T13:15:42;1.13;;;1.13;;
3865;SDS011;1948;53.250;10.412;2023-02-18T13:19:39;1.37;;;1.37;;
3865;SDS011;1948;53.250;10.412;2023-02-18T13:21:44;1.33;;;1.33;;
3865;SDS011;1948;53.250;10.412;2023-02-18T13:24:19;0.97;;;0.97;;
3865;SDS011;1948;53.250;10.412;2023-02-18T13:27:15;1.90;;;0.83;;
3865;SDS011;1948;53.250;10.412;2023-02-18T13:30:14;0.63;;;0.63;;
3865;SDS011;1948;53.250;10.412;2023-02-18T13:39:24;0.70;;;0.70;;
3865;SDS011;1948;53.250;10.412;2023-02-18T13:58:54;1.60;;;1.60;;
3865;SDS011;1948;53.250;10.412;2023-02-18T14:01:40;6.50;;;1.30;;
3865;SDS011;1948;53.250;10.412;2023-02-18T14:07:18;3.90;;;1.30;;
3865;SDS011;1948;53.250;10.412;2023-02-18T14:25:53;2.40;;;1.40;;
3865;SDS011;1948;53.250;10.412;2023-02-18T14:33:40;2.23;;;2.00;;
3865;SDS011;1948;53.250;10.412;2023-02-18T14:42:02;8.03;;;2.27;;
3865;SDS011;1948;53.250;10.412;2023-02-18T14:50:31;6.77;;;2.67;;
3865;SDS011;1948;53.250;10.412;2023-02-18T14:53:05;4.17;;;2.00;;
3865;SDS011;1948;53.250;10.412;2023-02-18T14:55:44;9.50;;;2.40;;
3865;SDS011;1948;53.250;10.412;2023-02-18T14:58:24;5.03;;;2.07;;
3865;SDS011;1948;53.250;10.412;2023-02-18T15:03:50;12.17;;;2.30;;
3865;SDS011;1948;53.250;10.412;2023-02-18T15:06:35;11.13;;;2.60;;
3865;SDS011;1948;53.250;10.412;2023-02-18T15:09:14;5.03;;;2.33;;
3865;SDS011;1948;53.250;10.412;2023-02-18T15:11:46;15.20;;;2.87;;
3865;SDS011;1948;53.250;10.412;2023-02-18T15:14:32;8.27;;;2.37;;
3865;SDS011;1948;53.250;10.412;2023-02-18T15:17:20;16.73;;;3.27;;
3865;SDS011;1948;53.250;10.412;2023-02-18T15:20:02;8.13;;;2.70;;
3865;SDS011;1948;53.250;10.412;2023-02-18T15:22:32;10.33;;;3.30;;
3865;SDS011;1948;53.250;10.412;2023-02-18T15:25:03;16.27;;;3.73;;
3865;SDS011;1948;53.250;10.412;2023-02-18T15:27:31;21.83;;;2.97;;
3865;SDS011;1948;53.250;10.412;2023-02-18T15:32:57;19.23;;;3.00;;
3865;SDS011;1948;53.250;10.412;2023-02-18T15:35:28;22.60;;;3.13;;
3865;SDS011;1948;53.250;10.412;2023-02-18T15:37:58;22.30;;;4.20;;
3865;SDS011;1948;53.250;10.412;2023-02-18T15:40:30;22.03;;;3.47;;
3865;SDS011;1948;53.250;10.412;2023-02-18T15:43:01;16.50;;;3.87;;
3865;SDS011;1948;53.250;10.412;2023-02-18T15:45:32;21.47;;;3.23;;
3865;SDS011;1948;53.250;10.412;2023-02-18T15:48:03;15.70;;;4.30;;
3865;SDS011;1948;53.250;10.412;2023-02-18T15:50:36;15.97;;;3.37;;
3865;SDS011;1948;53.250;10.412;2023-02-18T15:53:13;10.67;;;2.83;;
3865;SDS011;1948;53.250;10.412;2023-02-18T15:55:47;14.97;;;3.70;;
3865;SDS011;1948;53.250;10.412;2023-02-18T15:58:18;22.17;;;3.83;;
3865;SDS011;1948;53.250;10.412;2023-02-18T16:03:30;19.43;;;4.00;;
3865;SDS011;1948;53.250;10.412;2023-02-18T16:09:01;15.63;;;3.10;;
3865;SDS011;1948;53.250;10.412;2023-02-18T16:11:47;10.20;;;2.80;;
3865;SDS011;1948;53.250;10.412;2023-02-18T16:14:22;8.73;;;2.83;;
3865;SDS011;1948;53.250;10.412;2023-02-18T16:16:58;6.20;;;3.10;;
3865;SDS011;1948;53.250;10.412;2023-02-18T16:19:42;13.53;;;3.87;;
3865;SDS011;1948;53.250;10.412;2023-02-18T16:22:50;16.07;;;3.63;;
3865;SDS011;1948;53.250;10.412;2023-02-18T16:25:24;13.77;;;4.10;;
3865;SDS011;1948;53.250;10.412;2023-02-18T16:30:28;5.57;;;3.87;;
3865;SDS011;1948;53.250;10.412;2023-02-18T16:33:02;6.00;;;3.30;;
3865;SDS011;1948;53.250;10.412;2023-02-18T16:35:29;6.80;;;3.47;;
3865;SDS011;1948;53.250;10.412;2023-02-18T16:38:18;6.23;;;3.33;;
3865;SDS011;1948;53.250;10.412;2023-02-18T16:40:51;3.43;;;2.50;;
3865;SDS011;1948;53.250;10.412;2023-02-18T16:43:23;17.00;;;3.70;;
3865;SDS011;1948;53.250;10.412;2023-02-18T16:45:53;5.03;;;2.47;;
3865;SDS011;1948;53.250;10.412;2023-02-18T16:48:25;14.53;;;3.90;;
3865;SDS011;1948;53.250;10.412;2023-02-18T16:51:14;3.00;;;2.90;;
3865;SDS011;1948;53.250;10.412;2023-02-18T16:53:46;20.83;;;10.60;;
3865;SDS011;1948;53.250;10.412;2023-02-18T16:56:14;3.93;;;3.40;;
3865;SDS011;1948;53.250;10.412;2023-02-18T16:58:44;4.00;;;3.80;;
3865;SDS011;1948;53.250;10.412;2023-02-18T17:04:09;6.07;;;5.47;;
3865;SDS011;1948;53.250;10.412;2023-02-18T17:06:44;7.33;;;6.63;;
3865;SDS011;1948;53.250;10.412;2023-02-18T17:09:15;7.93;;;6.97;;
3865;SDS011;1948;53.250;10.412;2023-02-18T17:11:47;7.20;;;6.80;;
3865;SDS011;1948;53.250;10.412;2023-02-18T17:14:17;9.73;;;8.73;;
3865;SDS011;1948;53.250;10.412;2023-02-18T17:16:45;10.00;;;9.10;;
3865;SDS011;1948;53.250;10.412;2023-02-18T17:19:15;21.43;;;9.50;;
3865;SDS011;1948;53.250;10.412;2023-02-18T17:21:42;14.10;;;12.50;;
3865;SDS011;1948;53.250;10.412;2023-02-18T17:24:14;10.50;;;9.70;;
3865;SDS011;1948;53.250;10.412;2023-02-18T17:26:45;11.63;;;10.00;;
3865;SDS011;1948;53.250;10.412;2023-02-18T17:29:12;9.83;;;9.13;;
3865;SDS011;1948;53.250;10.412;2023-02-18T17:31:40;10.20;;;9.30;;
3865;SDS011;1948;53.250;10.412;2023-02-18T17:34:17;10.93;;;9.90;;
3865;SDS011;1948;53.250;10.412;2023-02-18T17:37:00;11.70;;;10.03;;
3865;SDS011;1948;53.250;10.412;2023-02-18T17:39:27;10.33;;;8.93;;
3865;SDS011;1948;53.250;10.412;2023-02-18T17:41:57;10.30;;;9.40;;
3865;SDS011;1948;53.250;10.412;2023-02-18T17:44:24;9.13;;;8.33;;
3865;SDS011;1948;53.250;10.412;2023-02-18T17:46:54;9.03;;;8.33;;
3865;SDS011;1948;53.250;10.412;2023-02-18T17:49:21;8.17;;;7.63;;
3865;SDS011;1948;53.250;10.412;2023-02-18T17:51:48;7.40;;;6.93;;
3865;SDS011;1948;53.250;10.412;2023-02-18T17:54:18;7.97;;;7.33;;
3865;SDS011;1948;53.250;10.412;2023-02-18T17:56:50;8.13;;;7.30;;
3865;SDS011;1948;53.250;10.412;2023-02-18T17:59:20;7.43;;;7.03;;
3865;SDS011;1948;53.250;10.412;2023-02-18T18:01:50;7.97;;;7.37;;
3865;SDS011;1948;53.250;10.412;2023-02-18T18:04:19;11.07;;;8.87;;
3865;SDS011;1948;53.250;10.412;2023-02-18T18:06:46;10.47;;;8.07;;
3865;SDS011;1948;53.250;10.412;2023-02-18T18:09:16;9.20;;;8.40;;
3865;SDS011;1948;53.250;10.412;2023-02-18T18:11:43;9.07;;;8.20;;
3865;SDS011;1948;53.250;10.412;2023-02-18T18:14:13;7.90;;;7.40;;
3865;SDS011;1948;53.250;10.412;2023-02-18T18:16:40;8.43;;;7.63;;
3865;SDS011;1948;53.250;10.412;2023-02-18T18:19:11;8.30;;;7.70;;
3865;SDS011;1948;53.250;10.412;2023-02-18T18:21:38;9.10;;;8.20;;
3865;SDS011;1948;53.250;10.412;2023-02-18T18:24:10;7.60;;;7.10;;
3865;SDS011;1948;53.250;10.412;2023-02-18T18:26:38;8.60;;;7.80;;
3865;SDS011;1948;53.250;10.412;2023-02-18T18:29:09;8.40;;;7.60;;
3865;SDS011;1948;53.250;10.412;2023-02-18T18:31:38;12.10;;;8.80;;
3865;SDS011;1948;53.250;10.412;2023-02-18T18:34:05;12.47;;;8.63;;
3865;SDS011;1948;53.250;10.412;2023-02-18T18:36:37;8.67;;;8.07;;
3865;SDS011;1948;53.250;10.412;2023-02-18T18:39:07;8.57;;;7.87;;
3865;SDS011;1948;53.250;10.412;2023-02-18T18:41:34;8.27;;;7.60;;
3865;SDS011;1948;53.250;10.412;2023-02-18T18:44:04;8.43;;;7.83;;
3865;SDS011;1948;53.250;10.412;2023-02-18T18:46:31;9.23;;;8.40;;
3865;SDS011;1948;53.250;10.412;2023-02-18T18:48:58;9.37;;;8.50;;
3865;SDS011;1948;53.250;10.412;2023-02-18T18:51:29;9.07;;;8.23;;
3865;SDS011;1948;53.250;10.412;2023-02-18T18:53:57;9.93;;;9.13;;
3865;SDS011;1948;53.250;10.412;2023-02-18T18:56:24;9.23;;;8.43;;
3865;SDS011;1948;53.250;10.412;2023-02-18T18:58:52;9.37;;;8.33;;
3865;SDS011;1948;53.250;10.412;2023-02-18T19:01:19;9.07;;;8.20;;
3865;SDS011;1948;53.250;10.412;2023-02-18T19:03:52;8.63;;;8.03;;
3865;SDS011;1948;53.250;10.412;2023-02-18T19:06:19;9.60;;;8.70;;
3865;SDS011;1948;53.250;10.412;2023-02-18T19:08:46;8.47;;;7.80;;